createdAt,value
2018-07-14T00:01:09.867Z,61.34
2018-07-14T00:03:37.913Z,61.65
2018-07-14T00:06:05.591Z,61.60
2018-07-14T00:08:33.219Z,61.20
2018-07-14T00:11:02.047Z,61.42
2018-07-14T00:13:29.752Z,61.79
2018-07-14T00:15:58.323Z,61.30
2018-07-14T00:18:26.988Z,61.40
2018-07-14T00:20:54.623Z,61.43
2018-07-14T00:23:22.277Z,61.87
2018-07-14T00:25:55.635Z,61.49
2018-07-14T00:28:23.359Z,61.33
2018-07-14T00:30:51.264Z,61.58
2018-07-14T00:33:18.908Z,62.00
2018-07-14T00:35:46.667Z,62.02
2018-07-14T00:38:14.903Z,61.49
2018-07-14T00:40:43.897Z,62.15
2018-07-14T00:43:11.554Z,62.21
2018-07-14T00:45:39.391Z,61.80
2018-07-14T00:48:06.985Z,61.61
2018-07-14T00:50:34.692Z,61.69
2018-07-14T00:53:03.093Z,61.96
2018-07-14T00:55:30.723Z,62.09
2018-07-14T00:57:59.170Z,61.93
2018-07-14T01:00:26.986Z,62.20
2018-07-14T01:02:54.626Z,62.20
2018-07-14T01:05:22.562Z,61.81
2018-07-14T01:07:50.405Z,62.28
2018-07-14T01:10:18.100Z,62.01
2018-07-14T01:12:46.180Z,61.72
2018-07-14T01:15:14.508Z,62.27
2018-07-14T01:17:42.196Z,62.25
2018-07-14T01:20:10.015Z,62.13
2018-07-14T01:22:37.925Z,61.71
2018-07-14T01:25:05.816Z,61.79
2018-07-14T01:27:33.891Z,61.89
2018-07-14T01:30:01.606Z,61.53
2018-07-14T01:32:29.267Z,61.35
2018-07-14T01:34:57.156Z,61.47
2018-07-14T01:37:24.965Z,61.31
2018-07-14T01:39:52.636Z,61.31
2018-07-14T01:42:20.722Z,61.42
2018-07-14T01:44:48.680Z,61.62
2018-07-14T01:47:16.587Z,61.53
2018-07-14T01:49:44.458Z,61.96
2018-07-14T01:52:12.333Z,61.56
2018-07-14T01:54:40.018Z,61.82
2018-07-14T01:57:07.858Z,61.49
2018-07-14T01:59:35.814Z,61.97
2018-07-14T02:02:03.403Z,61.54
2018-07-14T02:04:31.249Z,61.99
2018-07-14T02:06:59.164Z,62.02
2018-07-14T02:09:26.757Z,61.70
2018-07-14T02:11:54.557Z,61.75
2018-07-14T02:14:22.357Z,62.17
2018-07-14T02:16:49.990Z,62.14
2018-07-14T02:19:17.843Z,62.21
2018-07-14T02:21:45.632Z,62.28
2018-07-14T02:24:13.219Z,62.17
2018-07-14T02:26:42.058Z,62.08
2018-07-14T02:29:09.776Z,62.29
2018-07-14T02:31:37.435Z,61.70
2018-07-14T02:34:05.326Z,62.20
2018-07-14T02:36:33.338Z,62.06
2018-07-14T02:39:00.995Z,61.70
2018-07-14T02:41:28.680Z,61.71
2018-07-14T02:43:56.715Z,62.03
2018-07-14T02:46:24.364Z,61.59
2018-07-14T02:48:52.285Z,61.79
2018-07-14T02:51:20.180Z,61.74
2018-07-14T02:53:47.791Z,61.80
2018-07-14T02:56:16.504Z,61.97
2018-07-14T02:58:44.321Z,61.77
2018-07-14T03:01:11.947Z,62.14
2018-07-14T03:03:39.647Z,61.87
2018-07-14T03:06:07.441Z,61.86
2018-07-14T03:08:35.139Z,61.92
2018-07-14T03:11:03.160Z,62.34
2018-07-14T03:13:30.856Z,62.10
2018-07-14T03:15:58.508Z,62.36
2018-07-14T03:18:26.294Z,61.93
2018-07-14T03:20:53.985Z,62.05
2018-07-14T03:23:21.728Z,62.03
2018-07-14T03:25:49.570Z,61.98
2018-07-14T03:28:17.239Z,62.43
2018-07-14T03:30:44.942Z,62.54
2018-07-14T03:33:13.236Z,62.59
2018-07-14T03:35:41.069Z,62.38
2018-07-14T03:38:08.723Z,62.77
2018-07-14T03:40:36.493Z,61.98
2018-07-14T03:43:04.657Z,62.66
2018-07-14T03:45:32.436Z,62.47
2018-07-14T03:48:00.265Z,62.24
2018-07-14T03:50:27.922Z,62.46
2018-07-14T03:52:55.467Z,62.06
2018-07-14T03:55:23.211Z,62.32
2018-07-14T03:57:50.866Z,62.44
2018-07-14T04:00:18.490Z,62.32
2018-07-14T04:02:46.410Z,61.99
2018-07-14T04:05:14.547Z,62.41
2018-07-14T04:07:42.254Z,62.40
2018-07-14T04:10:09.946Z,62.24
2018-07-14T04:12:37.726Z,61.89
2018-07-14T04:15:05.509Z,61.86
2018-07-14T04:17:33.335Z,61.73
2018-07-14T04:20:01.386Z,61.62
2018-07-14T04:22:29.093Z,61.51
2018-07-14T04:24:56.914Z,61.43
2018-07-14T04:27:24.831Z,61.48
2018-07-14T04:29:52.482Z,61.25
2018-07-14T04:32:20.367Z,61.22
2018-07-14T04:34:48.226Z,61.57
2018-07-14T04:37:15.847Z,61.44
2018-07-14T04:39:43.768Z,61.46
2018-07-14T04:42:11.635Z,61.01
2018-07-14T04:44:39.285Z,60.74
2018-07-14T04:47:07.500Z,60.71
2018-07-14T04:49:35.097Z,61.02
2018-07-14T04:52:02.672Z,60.91
2018-07-14T04:54:30.472Z,60.50
2018-07-14T04:56:58.686Z,60.51
2018-07-14T04:59:26.358Z,60.24
2018-07-14T05:01:54.166Z,60.75
2018-07-14T05:04:21.983Z,60.42
2018-07-14T05:06:49.598Z,60.10
2018-07-14T05:09:17.510Z,60.49
2018-07-14T05:11:45.414Z,60.38
2018-07-14T05:14:13.694Z,59.94
2018-07-14T05:16:41.728Z,60.14
2018-07-14T05:19:09.628Z,59.81
2018-07-14T05:21:37.282Z,59.79
2018-07-14T05:24:05.187Z,59.34
2018-07-14T05:26:33.049Z,59.65
2018-07-14T05:29:00.640Z,59.54
2018-07-14T05:31:28.418Z,59.52
2018-07-14T05:33:56.187Z,59.53
2018-07-14T05:36:23.794Z,59.23
2018-07-14T05:38:51.744Z,58.73
2018-07-14T05:41:19.590Z,58.73
2018-07-14T05:43:47.329Z,58.79
2018-07-14T05:46:15.120Z,58.34
2018-07-14T05:48:43.121Z,58.40
2018-07-14T05:51:10.817Z,58.19
2018-07-14T05:53:38.639Z,57.76
2018-07-14T05:56:06.305Z,57.51
2018-07-14T05:58:33.937Z,57.98
2018-07-14T06:01:01.838Z,57.75
2018-07-14T06:03:29.758Z,57.08
2018-07-14T06:05:57.510Z,57.29
2018-07-14T06:08:25.364Z,56.57
2018-07-14T06:10:53.174Z,56.27
2018-07-14T06:13:20.894Z,56.42
2018-07-14T06:15:48.533Z,56.42
2018-07-14T06:18:16.312Z,56.20
2018-07-14T06:20:43.964Z,55.31
2018-07-14T06:23:11.660Z,55.08
2018-07-14T06:25:39.485Z,55.44
2018-07-14T06:28:07.124Z,55.38
2018-07-14T06:30:34.979Z,54.52
2018-07-14T06:33:02.892Z,54.83
2018-07-14T06:35:30.516Z,54.69
2018-07-14T06:37:58.578Z,54.23
2018-07-14T06:40:26.367Z,54.24
2018-07-14T06:42:54.024Z,54.00
2018-07-14T06:45:22.099Z,53.29
2018-07-14T06:47:49.856Z,52.97
2018-07-14T06:50:17.620Z,52.87
2018-07-14T06:52:45.340Z,52.92
2018-07-14T06:57:32.777Z,52.36
2018-07-14T07:00:00.697Z,51.91
2018-07-14T07:02:28.360Z,52.21
2018-07-14T07:04:56.171Z,51.56
2018-07-14T07:07:23.957Z,50.37
2018-07-14T07:09:51.640Z,49.85
2018-07-14T07:12:19.536Z,49.77
2018-07-14T07:15:49.903Z,49.75
2018-07-14T07:18:17.624Z,48.84
2018-07-14T07:20:45.272Z,48.43
2018-07-14T07:23:13.045Z,48.92
2018-07-14T07:25:40.789Z,48.07
2018-07-14T07:28:08.419Z,47.70
2018-07-14T07:30:36.156Z,47.39
2018-07-14T07:33:03.840Z,47.55
2018-07-14T07:35:31.448Z,46.95
2018-07-14T07:37:59.324Z,47.14
2018-07-14T07:40:27.119Z,47.16
2018-07-14T07:42:54.781Z,46.48
2018-07-14T07:45:22.601Z,46.19
2018-07-14T07:47:50.314Z,45.96
2018-07-14T07:50:17.977Z,45.97
2018-07-14T07:52:46.142Z,45.92
2018-07-14T07:55:13.803Z,45.27
2018-07-14T07:57:41.415Z,45.26
2018-07-14T08:00:09.287Z,45.27
2018-07-14T08:02:36.983Z,45.15
2018-07-14T08:05:04.958Z,45.51
2018-07-14T08:07:33.021Z,45.16
2018-07-14T08:10:01.473Z,44.33
2018-07-14T08:12:29.093Z,44.28
2018-07-14T08:14:57.932Z,44.53
2018-07-14T08:17:26.472Z,44.24
2018-07-14T08:19:54.332Z,44.07
2018-07-14T08:22:22.157Z,43.93
2018-07-14T08:24:49.824Z,44.17
2018-07-14T08:27:17.397Z,44.17
2018-07-14T08:29:45.501Z,43.80
2018-07-14T08:32:13.835Z,43.13
2018-07-14T08:34:41.427Z,43.11
2018-07-14T08:37:09.508Z,43.23
2018-07-14T08:39:37.673Z,43.80
2018-07-14T08:42:05.384Z,43.50
2018-07-14T08:44:33.609Z,42.84
2018-07-14T08:47:01.340Z,42.69
2018-07-14T08:49:29.319Z,42.84
2018-07-14T08:51:57.595Z,43.45
2018-07-14T08:54:25.568Z,42.99
2018-07-14T08:56:53.311Z,43.00
2018-07-14T08:59:52.025Z,42.98
2018-07-14T09:02:19.627Z,42.81
2018-07-14T09:04:47.273Z,43.13
2018-07-14T09:07:14.988Z,42.18
2018-07-14T09:09:43.214Z,42.05
2018-07-14T09:12:10.931Z,42.43
2018-07-14T09:14:38.813Z,42.05
2018-07-14T09:17:06.576Z,41.98
2018-07-14T09:19:34.427Z,42.30
2018-07-14T09:22:02.293Z,42.20
2018-07-14T09:24:29.933Z,42.65
2018-07-14T09:26:57.729Z,42.41
2018-07-14T09:29:25.587Z,42.20
2018-07-14T09:31:53.215Z,42.95
2018-07-14T09:34:20.988Z,42.67
2018-07-14T09:36:48.806Z,42.78
2018-07-14T09:39:16.408Z,43.28
2018-07-14T09:41:44.317Z,43.58
2018-07-14T09:44:12.186Z,43.47
2018-07-14T09:46:39.817Z,43.42
2018-07-14T09:49:07.463Z,43.63
2018-07-14T09:51:35.314Z,43.26
2018-07-14T09:54:03.023Z,43.53
2018-07-14T09:56:31.251Z,43.14
2018-07-14T09:58:59.094Z,42.93
2018-07-14T10:01:26.800Z,42.03
2018-07-14T10:03:54.648Z,42.34
2018-07-14T10:06:22.399Z,41.73
2018-07-14T10:08:50.017Z,40.88
2018-07-14T10:11:17.808Z,40.68
2018-07-14T10:13:46.357Z,40.25
2018-07-14T10:16:13.919Z,40.07
2018-07-14T10:18:41.774Z,39.96
2018-07-14T10:21:09.685Z,39.88
2018-07-14T10:23:37.304Z,39.75
2018-07-14T10:26:04.951Z,39.05
2018-07-14T10:28:32.850Z,38.47
2018-07-14T10:31:00.555Z,37.92
2018-07-14T10:33:28.325Z,37.74
2018-07-14T10:35:56.057Z,37.10
2018-07-14T10:38:23.717Z,37.70
2018-07-14T10:40:51.477Z,37.47
2018-07-14T10:43:20.498Z,37.52
2018-07-14T10:45:48.269Z,36.56
2018-07-14T10:48:16.094Z,36.40
2018-07-14T10:50:43.948Z,36.25
2018-07-14T10:53:11.798Z,35.96
2018-07-14T10:55:39.553Z,36.14
2018-07-14T10:58:07.472Z,35.38
2018-07-14T11:00:35.112Z,35.77
2018-07-14T11:03:03.842Z,35.39
2018-07-14T11:05:31.559Z,35.85
2018-07-14T11:07:59.269Z,35.31
2018-07-14T11:10:27.673Z,35.58
2018-07-14T11:12:55.400Z,36.22
2018-07-14T11:15:23.009Z,35.20
2018-07-14T11:17:50.768Z,36.07
2018-07-14T11:20:18.503Z,35.41
2018-07-14T11:22:46.197Z,35.32
2018-07-14T11:25:13.859Z,35.32
2018-07-14T11:27:41.545Z,35.14
2018-07-14T11:30:09.258Z,35.24
2018-07-14T11:32:37.207Z,35.64
2018-07-14T11:35:04.894Z,34.53
2018-07-14T11:37:32.812Z,34.60
2018-07-14T11:40:00.651Z,34.91
2018-07-14T11:42:28.462Z,34.86
2018-07-14T11:44:56.129Z,34.21
2018-07-14T11:47:23.869Z,34.43
2018-07-14T11:49:51.565Z,34.37
2018-07-14T11:52:19.175Z,34.10
2018-07-14T11:54:47.053Z,34.33
2018-07-14T11:57:14.922Z,33.74
2018-07-14T11:59:43.038Z,33.12
2018-07-14T12:02:11.083Z,33.38
2018-07-14T12:43:40.668Z,33.71
2018-07-14T12:46:08.435Z,34.47
2018-07-14T12:48:36.095Z,34.24
2018-07-14T12:51:03.710Z,33.84
2018-07-14T12:53:31.509Z,33.88
2018-07-14T12:55:59.098Z,33.45
2018-07-14T12:58:26.762Z,33.23
2018-07-14T13:00:54.637Z,33.58
2018-07-14T13:03:22.265Z,33.68
2018-07-14T13:05:49.924Z,33.36
2018-07-14T13:08:17.725Z,32.60
2018-07-14T13:10:45.354Z,32.63
2018-07-14T13:13:13.031Z,33.03
2018-07-14T13:15:40.924Z,32.97
2018-07-14T13:18:08.625Z,33.15
2018-07-14T13:20:36.278Z,32.95
2018-07-14T13:23:04.156Z,32.70
2018-07-14T13:25:31.760Z,32.72
2018-07-14T13:27:59.381Z,32.39
2018-07-14T13:30:27.207Z,32.77
2018-07-14T13:32:54.857Z,32.97
2018-07-14T13:35:22.544Z,33.11
2018-07-14T13:37:50.330Z,32.93
2018-07-14T13:40:17.932Z,33.58
2018-07-14T13:42:46.366Z,33.35
2018-07-14T13:45:15.364Z,33.76
2018-07-14T13:47:43.547Z,33.91
2018-07-14T13:50:11.202Z,33.70
2018-07-14T13:52:39.289Z,33.22
2018-07-14T13:55:06.961Z,33.29
2018-07-14T13:57:34.658Z,33.09
2018-07-14T14:00:02.415Z,33.66
2018-07-14T14:02:30.076Z,33.91
2018-07-14T14:04:57.703Z,33.72
2018-07-14T14:07:25.377Z,33.61
2018-07-14T14:09:53.000Z,33.35
2018-07-14T14:12:20.719Z,33.43
2018-07-14T14:14:48.559Z,33.36
2018-07-14T14:17:16.217Z,34.17
2018-07-14T14:19:43.817Z,33.45
2018-07-14T14:22:11.525Z,33.62
2018-07-14T14:24:39.129Z,34.33
2018-07-14T14:27:06.761Z,33.31
2018-07-14T14:29:34.732Z,33.45
2018-07-14T14:32:02.376Z,33.36
2018-07-14T14:34:30.074Z,33.81
2018-07-14T14:36:57.952Z,33.23
2018-07-14T14:39:25.502Z,33.83
2018-07-14T14:41:53.161Z,33.47
2018-07-14T14:44:21.116Z,33.83
2018-07-14T14:46:48.759Z,33.81
2018-07-14T14:49:16.423Z,33.90
2018-07-14T14:51:44.168Z,34.03
2018-07-14T14:54:11.818Z,33.39
2018-07-14T14:56:39.420Z,33.72
2018-07-14T14:59:07.364Z,33.59
2018-07-14T15:01:35.052Z,33.71
2018-07-14T15:04:02.616Z,34.03
2018-07-14T15:06:30.471Z,33.35
2018-07-14T15:08:58.088Z,34.07
2018-07-14T15:11:25.705Z,34.19
2018-07-14T15:13:53.644Z,33.96
2018-07-14T15:16:21.275Z,33.28
2018-07-14T15:18:48.947Z,33.64
2018-07-14T15:21:16.743Z,33.85
2018-07-14T15:23:44.372Z,33.45
2018-07-14T15:26:11.986Z,33.96
2018-07-14T15:28:39.828Z,34.23
2018-07-14T15:31:07.486Z,33.49
2018-07-14T15:33:35.121Z,33.39
2018-07-14T15:36:03.003Z,34.19
2018-07-14T15:38:30.572Z,34.02
2018-07-14T15:40:58.115Z,34.22
2018-07-14T15:43:25.949Z,33.74
2018-07-14T15:45:53.565Z,33.75
2018-07-14T15:48:21.210Z,34.23
2018-07-14T15:50:49.391Z,34.25
2018-07-14T15:53:17.509Z,33.63
2018-07-14T15:55:45.216Z,34.16
2018-07-14T15:58:13.097Z,34.06
2018-07-14T16:00:40.724Z,34.21
2018-07-14T16:03:08.278Z,33.58
2018-07-14T16:05:36.329Z,33.36
2018-07-14T16:08:03.970Z,33.68
2018-07-14T16:10:31.679Z,33.25
2018-07-14T16:12:59.803Z,33.64
2018-07-14T16:15:27.615Z,34.33
2018-07-14T16:17:55.215Z,34.40
2018-07-14T16:20:23.103Z,33.87
2018-07-14T16:22:50.666Z,34.36
2018-07-14T16:25:18.320Z,33.92
2018-07-14T16:27:46.407Z,34.45
2018-07-14T16:30:14.006Z,34.12
2018-07-14T16:32:41.592Z,34.73
2018-07-14T16:35:09.475Z,34.29
2018-07-14T16:37:37.182Z,35.03
2018-07-14T16:40:04.918Z,35.01
2018-07-14T16:42:32.921Z,34.80
2018-07-14T16:45:00.602Z,34.71
2018-07-14T16:47:28.248Z,35.30
2018-07-14T16:49:56.118Z,35.54
2018-07-14T16:52:23.867Z,35.49
2018-07-14T16:54:51.530Z,35.54
2018-07-14T16:57:19.427Z,35.95
2018-07-14T16:59:47.091Z,35.90
2018-07-14T17:02:14.689Z,35.58
2018-07-14T17:04:42.861Z,36.19
2018-07-14T17:07:10.483Z,35.74
2018-07-14T17:09:38.097Z,35.96
2018-07-14T17:12:05.920Z,36.07
2018-07-14T17:14:33.550Z,36.59
2018-07-14T17:17:01.180Z,36.40
2018-07-14T17:19:29.064Z,36.92
2018-07-14T17:21:56.713Z,36.66
2018-07-14T17:24:24.368Z,36.67
2018-07-14T17:26:52.349Z,36.58
2018-07-14T17:29:19.979Z,37.58
2018-07-14T17:31:47.649Z,37.12
2018-07-14T17:34:15.554Z,37.61
2018-07-14T17:36:43.117Z,37.00
2018-07-14T17:39:10.695Z,37.08
2018-07-14T17:41:38.609Z,37.52
2018-07-14T17:44:06.304Z,37.41
2018-07-14T17:46:33.942Z,37.76
2018-07-14T17:49:01.925Z,37.96
2018-07-14T17:51:29.599Z,37.79
2018-07-14T17:53:57.442Z,38.26
2018-07-14T17:56:25.558Z,38.26
2018-07-14T17:58:53.201Z,37.90
2018-07-14T18:01:20.815Z,38.61
2018-07-14T18:03:48.757Z,38.60
2018-07-14T18:06:16.437Z,38.77
2018-07-14T18:08:44.061Z,38.27
2018-07-14T18:11:11.940Z,38.51
2018-07-14T18:13:39.538Z,39.09
2018-07-14T18:16:07.126Z,39.15
2018-07-14T18:18:35.582Z,39.23
2018-07-14T18:21:04.062Z,39.43
2018-07-14T18:23:32.605Z,38.93
2018-07-14T18:26:01.299Z,39.62
2018-07-14T18:28:29.342Z,39.28
2018-07-14T18:30:56.980Z,39.84
2018-07-14T18:33:24.743Z,39.28
2018-07-14T18:35:52.470Z,39.31
2018-07-14T18:38:20.078Z,39.31
2018-07-14T18:40:47.797Z,39.65
2018-07-14T18:43:15.498Z,39.86
2018-07-14T18:45:43.101Z,40.17
2018-07-14T18:48:11.002Z,39.69
2018-07-14T18:50:38.723Z,39.86
2018-07-14T18:53:06.505Z,39.97
2018-07-14T18:55:34.410Z,39.99
2018-07-14T18:58:02.015Z,40.63
2018-07-14T19:00:29.708Z,40.61
2018-07-14T19:02:57.600Z,41.07
2018-07-14T19:05:25.237Z,40.73
2018-07-14T19:07:53.001Z,40.87
2018-07-14T19:10:20.872Z,41.39
2018-07-14T19:12:48.499Z,41.32
2018-07-14T19:15:16.226Z,41.71
2018-07-14T19:17:44.192Z,41.89
2018-07-14T19:20:11.805Z,42.22
2018-07-14T19:22:39.625Z,42.97
2018-07-14T19:25:07.528Z,42.96
2018-07-14T19:27:35.143Z,42.83
2018-07-14T19:30:02.989Z,43.58
2018-07-14T19:32:30.889Z,43.26
2018-07-14T19:34:58.576Z,43.87
2018-07-14T19:37:26.270Z,43.60
2018-07-14T19:39:54.025Z,44.41
2018-07-14T19:42:21.635Z,44.43
2018-07-14T19:44:49.423Z,44.36
2018-07-14T19:47:17.170Z,44.94
2018-07-14T19:49:44.759Z,45.08
2018-07-14T19:52:12.525Z,44.78
2018-07-14T19:54:40.352Z,45.20
2018-07-14T19:57:08.200Z,44.90
2018-07-14T19:59:35.976Z,45.19
2018-07-14T20:02:03.892Z,45.67
2018-07-14T20:04:31.535Z,45.87
2018-07-14T20:06:59.153Z,45.57
2018-07-14T20:09:26.765Z,46.35
2018-07-14T20:11:54.431Z,46.08
2018-07-14T20:14:22.199Z,46.36
2018-07-14T20:16:49.878Z,46.36
2018-07-14T20:19:17.429Z,47.15
2018-07-14T20:21:45.063Z,46.81
2018-07-14T20:24:12.860Z,47.51
2018-07-14T20:26:40.425Z,47.13
2018-07-14T20:29:08.176Z,47.59
2018-07-14T20:31:35.979Z,47.75
2018-07-14T20:34:03.622Z,47.73
2018-07-14T20:36:31.518Z,48.28
2018-07-14T20:38:59.057Z,48.19
2018-07-14T20:41:26.744Z,48.48
2018-07-14T20:43:54.444Z,48.58
2018-07-14T20:46:22.331Z,48.70
2018-07-14T20:48:49.961Z,49.36
2018-07-14T20:51:17.594Z,49.34
2018-07-14T20:53:45.358Z,49.39
2018-07-14T20:56:12.996Z,49.39
2018-07-14T20:58:40.868Z,50.11
2018-07-14T21:01:08.521Z,49.91
2018-07-14T21:03:36.252Z,50.73
2018-07-14T21:06:04.083Z,50.94
2018-07-14T21:08:31.722Z,50.94
2018-07-14T21:10:59.326Z,51.43
2018-07-14T21:13:27.158Z,51.01
2018-07-14T21:15:54.967Z,51.20
2018-07-14T21:18:22.617Z,51.88
2018-07-14T21:20:50.450Z,51.49
2018-07-14T21:23:18.085Z,52.27
2018-07-14T21:25:45.778Z,52.40
2018-07-14T21:28:13.698Z,52.54
2018-07-14T21:30:41.532Z,52.54
2018-07-14T21:33:09.170Z,52.52
2018-07-14T21:35:37.107Z,52.64
2018-07-14T21:38:04.933Z,53.07
2018-07-14T21:40:32.596Z,53.45
2018-07-14T21:43:00.341Z,53.63
2018-07-14T21:45:28.136Z,53.82
2018-07-14T21:47:55.764Z,54.03
2018-07-14T21:50:23.429Z,54.05
2018-07-14T21:52:51.070Z,53.93
2018-07-14T21:55:18.810Z,54.38
2018-07-14T21:57:46.588Z,54.56
2018-07-14T22:00:31.435Z,54.48
2018-07-14T22:02:59.580Z,54.21
2018-07-14T22:05:27.128Z,54.64
2018-07-14T22:07:54.816Z,54.63
2018-07-14T22:10:22.997Z,55.19
2018-07-14T22:12:51.418Z,55.37
2018-07-14T22:15:19.035Z,55.26
2018-07-14T22:17:47.443Z,55.71
2018-07-14T22:20:15.263Z,55.82
2018-07-14T22:22:42.884Z,55.48
2018-07-14T22:25:10.674Z,55.77
2018-07-14T22:27:38.339Z,55.97
2018-07-14T22:30:06.097Z,56.02
2018-07-14T22:32:33.941Z,56.36
2018-07-14T22:35:01.551Z,56.19
2018-07-14T22:37:29.140Z,56.23
2018-07-14T22:39:57.153Z,56.84
2018-07-14T22:42:24.719Z,56.46
2018-07-14T22:44:52.328Z,56.94
2018-07-14T22:47:20.062Z,57.18
2018-07-14T22:49:47.772Z,56.90
2018-07-14T22:52:15.385Z,57.44
2018-07-14T22:54:43.282Z,57.62
2018-07-14T22:57:10.918Z,57.33
2018-07-14T22:59:38.582Z,57.65
2018-07-14T23:02:06.580Z,57.57
2018-07-14T23:04:34.220Z,58.14
2018-07-14T23:07:01.804Z,58.19
2018-07-14T23:09:29.762Z,57.87
2018-07-14T23:11:57.417Z,58.33
2018-07-14T23:14:25.129Z,58.42
2018-07-14T23:16:53.132Z,58.17
2018-07-14T23:19:20.753Z,58.64
2018-07-14T23:21:48.470Z,58.28
2018-07-14T23:24:16.223Z,58.31
2018-07-14T23:26:43.821Z,58.32
2018-07-14T23:29:11.423Z,59.08
2018-07-14T23:31:39.432Z,59.00
2018-07-14T23:34:07.070Z,58.64
2018-07-14T23:36:34.661Z,58.92
2018-07-14T23:39:02.642Z,59.27
2018-07-14T23:41:30.255Z,58.98
2018-07-14T23:43:57.917Z,59.04
2018-07-14T23:46:25.657Z,59.17
2018-07-14T23:48:53.263Z,59.10
2018-07-14T23:51:20.890Z,59.55
2018-07-14T23:53:48.775Z,59.29
2018-07-14T23:56:16.403Z,59.28
2018-07-14T23:58:44.029Z,59.71
